Latest Weather Observations for Grafton Airport

IDN60801

Issued at 7:15 pm EDT Sunday 1 March 2015 (issued every 30 minutes, with the page automatically refreshed every 10 minutes)

About weather observations | Map of weather stations | Latest weather observations for NSW | Other Formats
Station Details ID: 058161 Name: GRAFTON AIRPORT AWS Lat: -29.76 Lon: 153.03 Height: 25.09 m
Data from the previous 72 hours. | See also: Recent months for locations in New South Wales
Date/Time
EDT
Temp
°C
App
Temp
°C
Dew
Point
Rel
Hum
%
Delta-T
°C
Wind Press
QNH
hPa
Press
MSL
hPa
Rain
since 9 am
mm
Dir
 
Spd
km/h
Gust
km/h
Spd
kts
Gust
kts
01/07:00pm 23.9 25.4 22.0 89 1.3 N 17 24 9 13 1007.4 1007.3 1.2
01/06:30pm 24.1 27.1 22.0 88 1.4 NNE 9 15 5 8 1007.6 1007.5 0.8
01/06:00pm 24.7 28.4 21.4 82 2.2 W 4 9 2 5 1008.5 1008.4 0.6
01/05:30pm 25.1 27.9 21.6 81 2.3 NE 9 15 5 8 1007.9 1007.8 0.2
01/05:00pm 26.9 28.4 21.2 71 3.8 NE 15 22 8 12 1006.7 1006.6 0.0
01/04:30pm 28.1 28.7 21.1 65 4.7 NE 19 24 10 13 1006.8 1006.7 0.0
01/04:00pm 30.0 31.8 20.3 56 6.4 NE 11 17 6 9 1006.4 1006.3 0.0
01/03:30pm 30.8 32.2 21.0 56 6.6 NNE 15 22 8 12 1006.8 1006.7 0.0
01/03:00pm 31.4 31.7 19.7 49 7.7 NNE 17 22 9 12 1006.9 1006.8 0.0
01/02:30pm 31.4 32.8 21.0 54 7.0 NNE 15 20 8 11 1007.4 1007.3 0.0
01/02:00pm 30.6 32.1 20.5 54 6.7 N 13 19 7 10 1007.9 1007.8 0.0
01/01:30pm 30.3 31.6 20.8 56 6.3 N 15 22 8 12 1008.4 1008.3 0.0
01/01:00pm 29.5 30.7 20.6 58 5.9 N 15 22 8 12 1008.9 1008.8 0.0
01/12:30pm 29.4 31.9 21.1 61 5.5 NNW 9 15 5 8 1009.5 1009.4 0.0
01/12:00pm 28.7 30.1 20.4 60 5.5 N 13 20 7 11 1010.0 1009.9 0.0
01/11:30am 28.8 30.2 20.3 60 5.6 NNW 13 24 7 13 1010.4 1010.3 0.0
01/11:00am 28.1 30.4 20.6 63 5.0 NNW 9 15 5 8 1010.7 1010.6 0.0
01/10:30am 27.0 29.2 20.3 66 4.4 NNW 9 15 5 8 1010.9 1010.8 0.0
01/10:00am 26.1 28.4 20.7 72 3.6 NNE 9 17 5 9 1010.9 1010.8 0.0
01/09:30am 24.8 27.5 20.7 78 2.7 N 7 13 4 7 1010.9 1010.8 0.0
01/09:00am 23.7 26.6 20.6 83 2.0 N 6 11 3 6 1010.7 1010.6 0.2
01/08:30am 22.5 25.9 20.2 87 1.5 NNE 2 7 1 4 1010.8 1010.7 0.2
01/08:00am 21.4 25.2 20.2 93 0.8 CALM 0 0 0 0 1010.8 1010.7 0.2
01/07:30am 20.4 24.2 20.1 98 0.2 CALM 0 0 0 0 1010.7 1010.6 0.2
01/07:00am 19.5 22.8 19.2 98 0.2 CALM 0 0 0 0 1010.4 1010.3 0.2
01/06:33am 19.4 22.6 18.9 97 0.3 CALM 0 0 0 0 1010.2 1010.1 0.2
01/06:30am 19.3 22.5 18.8 97 0.3 CALM 0 0 0 0 1010.2 1010.1 0.2
01/06:21am 19.4 22.6 18.9 97 0.3 CALM 0 0 0 0 1010.1 1010.0 0.2
01/06:02am 19.5 22.8 19.0 97 0.3 CALM 0 0 0 0 1009.9 1009.8 0.2
01/06:00am 19.3 22.5 18.8 97 0.3 CALM 0 0 0 0 1009.9 1009.8 0.2
01/05:30am 19.6 22.8 18.9 96 0.4 CALM 0 0 0 0 1009.7 1009.6 0.2
01/05:27am 19.6 22.9 19.1 97 0.3 CALM 0 0 0 0 1009.7 1009.6 0.2
01/05:00am 19.9 23.3 19.4 97 0.3 CALM 0 0 0 0 1009.7 1009.6 0.2
01/04:30am 20.0 23.4 19.3 96 0.4 CALM 0 0 0 0 1009.7 1009.6 0.2
01/04:00am 20.2 23.7 19.5 96 0.4 CALM 0 0 0 0 1009.7 1009.6 0.2
01/03:30am 20.4 23.6 19.7 96 0.4 SSE 2 6 1 3 1009.9 1009.8 0.2
01/03:00am 20.6 24.3 19.9 96 0.4 CALM 0 0 0 0 1010.2 1010.1 0.2
01/02:30am 20.8 23.8 20.0 95 0.5 SSW 4 7 2 4 1010.5 1010.4 0.2
01/02:00am 21.3 25.1 20.1 93 0.8 CALM 0 0 0 0 1010.6 1010.5 0.2
01/01:30am 21.5 25.4 20.3 93 0.8 CALM 0 0 0 0 1011.1 1011.0 0.2
01/01:00am 21.5 25.3 20.1 92 0.9 CALM 0 0 0 0 1011.3 1011.2 0.2
01/12:30am 22.0 26.0 20.5 91 1.0 CALM 0 0 0 0 1011.5 1011.4 0.2
01/12:00am 21.8 25.7 20.3 91 1.0 CALM 0 4 0 2 1011.7 1011.6 0.2
 
Date/Time
EDT
Temp
°C
App
Temp
°C
Dew
Point
Rel
Hum
%
Delta-T
°C
Wind Press
QNH
hPa
Press
MSL
hPa
Rain
since 9 am
mm
Dir
 
Spd
km/h
Gust
km/h
Spd
kts
Gust
kts
28/11:30pm 21.8 24.3 20.3 91 1.0 SSW 7 11 4 6 1011.8 1011.7 0.2
28/11:10pm 22.1 26.0 20.4 90 1.1 CALM 0 0 0 0 1011.7 1011.6 0.2
28/11:00pm 22.4 26.4 20.5 89 1.2 CALM 0 0 0 0 1011.6 1011.5 0.2
28/10:53pm 22.6 26.3 19.9 85 1.7 CALM 0 0 0 0 1011.7 1011.6 0.2
28/10:30pm 23.0 26.8 20.1 84 1.9 CALM 0 4 0 2 1011.8 1011.7 0.2
28/10:00pm 23.3 27.2 20.4 84 1.9 CALM 0 6 0 3 1012.0 1011.9 0.2
28/09:30pm 23.0 26.9 20.3 85 1.7 CALM 0 0 0 0 1011.7 1011.6 0.2
28/09:00pm 23.4 26.8 20.1 82 2.1 E 2 7 1 4 1011.2 1011.1 0.2
28/08:30pm 23.7 26.2 19.8 79 2.5 ENE 6 9 3 5 1010.6 1010.5 0.2
28/08:00pm 24.1 26.3 19.6 76 2.9 NE 7 11 4 6 1010.4 1010.3 0.2
28/07:30pm 24.5 25.9 19.6 74 3.2 NE 11 17 6 9 1009.8 1009.7 0.2
28/07:00pm 25.0 25.7 19.6 72 3.5 NE 15 20 8 11 1009.8 1009.7 0.2
28/06:30pm 25.5 25.7 19.4 69 3.9 ENE 17 26 9 14 1009.1 1008.9 0.2
28/06:00pm 26.5 26.2 19.6 66 4.5 ENE 20 28 11 15 1009.0 1008.8 0.2
28/05:30pm 27.7 28.4 20.5 65 4.7 NE 17 24 9 13 1009.0 1008.8 0.2
28/05:00pm 27.2 27.2 19.8 64 4.8 ENE 19 26 10 14 1008.6 1008.4 0.2
28/04:30pm 28.5 28.5 20.2 60 5.5 E 20 28 11 15 1008.6 1008.4 0.2
28/04:00pm 29.2 29.5 20.4 59 5.8 ENE 19 30 10 16 1008.6 1008.4 0.2
28/03:30pm 29.4 29.7 20.5 58 5.9 NE 19 24 10 13 1008.7 1008.5 0.2
28/03:00pm 28.8 29.9 19.7 58 6.0 E 13 20 7 11 1008.9 1008.7 0.2
28/02:30pm 29.4 30.4 20.3 58 6.0 ENE 15 19 8 10 1009.3 1009.1 0.2
28/02:00pm 29.5 30.9 19.5 55 6.5 N 11 15 6 8 1009.7 1009.6 0.2
28/01:30pm 29.2 31.4 19.2 54 6.5 N 6 13 3 7 1010.1 1010.0 0.2
28/01:00pm 28.0 29.4 18.7 57 6.0 N 9 15 5 8 1010.4 1010.3 0.2
28/12:30pm 28.4 29.7 19.3 57 5.9 NNE 11 15 6 8 1010.7 1010.6 0.2
28/12:00pm 27.7 29.6 19.8 62 5.2 NNE 9 15 5 8 1011.1 1011.0 0.2
28/11:30am 27.0 29.1 19.4 63 4.9 NNE 7 9 4 5 1011.3 1011.2 0.2
28/11:00am 26.3 27.7 18.7 63 4.9 N 9 13 5 7 1011.6 1011.5 0.2
28/10:30am 26.2 28.8 20.1 69 4.0 NNW 6 9 3 5 1011.8 1011.7 0.0
28/10:00am 25.5 28.1 20.1 72 3.5 WSW 6 13 3 7 1011.8 1011.7 0.0
28/09:30am 24.3 27.3 20.8 81 2.3 S 6 9 3 5 1011.7 1011.6 0.0
28/09:00am 23.1 26.5 21.0 88 1.4 SSW 4 7 2 4 1011.6 1011.5 25.2
28/08:30am 21.7 24.2 20.3 92 0.9 SW 7 9 4 5 1011.5 1011.4 25.2
28/08:00am 20.7 23.2 20.2 97 0.3 SW 7 11 4 6 1011.5 1011.4 25.2
28/07:30am 20.0 23.3 20.0 100 0.0 SSW 2 6 1 3 1011.1 1011.0 25.2
28/07:00am 19.7 22.8 19.5 99 0.1 SSW 2 6 1 3 1010.7 1010.6 25.2
28/06:30am 20.0 23.0 20.0 100 0.0 SSW 4 7 2 4 1010.4 1010.3 25.2
28/06:00am 19.8 22.3 19.8 100 0.0 SSW 6 7 3 4 1010.2 1010.1 25.2
28/05:30am 19.8 23.3 19.6 99 0.1 CALM 0 6 0 3 1010.0 1009.9 25.2
28/05:00am 19.8 22.2 19.6 99 0.1 SE 6 7 3 4 1009.8 1009.7 25.2
28/04:32am 19.8 23.3 19.6 99 0.1 CALM 0 0 0 0 1009.8 1009.7 25.2
28/04:30am 19.8 23.3 19.6 99 0.1 CALM 0 0 0 0 1009.8 1009.7 25.2
28/04:28am 19.8 23.3 19.6 99 0.1 CALM 0 0 0 0 1009.8 1009.7 25.2
28/04:08am 19.7 23.1 19.4 98 0.2 CALM 0 0 0 0 1009.8 1009.7 25.2
28/04:00am 19.9 23.4 19.6 98 0.2 CALM 0 0 0 0 1009.8 1009.7 25.2
28/03:30am 20.0 23.6 19.7 98 0.2 CALM 0 0 0 0 1009.9 1009.8 25.2
28/03:00am 20.1 23.3 19.8 98 0.2 S 2 6 1 3 1010.2 1010.1 25.2
28/02:30am 20.3 22.9 20.0 98 0.2 SW 6 7 3 4 1010.5 1010.4 25.2
28/02:00am 20.4 23.8 20.1 98 0.2 SSW 2 7 1 4 1010.6 1010.5 25.2
28/01:30am 20.4 22.7 19.9 97 0.3 SW 7 11 4 6 1010.6 1010.5 25.2
28/01:00am 20.6 23.0 20.1 97 0.3 SSW 7 11 4 6 1010.6 1010.5 25.2
28/12:30am 21.0 23.6 20.5 97 0.3 SSW 7 11 4 6 1010.9 1010.8 25.2
28/12:00am 21.0 23.6 20.5 97 0.3 SSW 7 11 4 6 1011.1 1011.0 25.2
 
Date/Time
EDT
Temp
°C
App
Temp
°C
Dew
Point
Rel
Hum
%
Delta-T
°C
Wind Press
QNH
hPa
Press
MSL
hPa
Rain
since 9 am
mm
Dir
 
Spd
km/h
Gust
km/h
Spd
kts
Gust
kts
27/11:30pm 20.9 23.5 20.4 97 0.3 SW 7 11 4 6 1011.1 1011.0 25.2
27/11:00pm 20.9 22.3 20.4 97 0.3 S 13 15 7 8 1011.0 1010.9 25.2
27/10:30pm 21.2 24.0 20.9 98 0.2 SSW 7 11 4 6 1010.8 1010.7 25.2
27/10:00pm 21.4 24.2 20.9 97 0.3 SSW 7 11 4 6 1010.7 1010.6 25.2
27/09:30pm 21.9 25.4 21.1 95 0.5 W 4 6 2 3 1010.4 1010.3 25.0
27/09:25pm 21.9 25.8 21.1 95 0.5 NW 2 6 1 3 1010.4 1010.3 25.0
27/09:23pm 21.9 25.8 21.1 95 0.5 N 2 6 1 3 1010.4 1010.3 25.0
27/09:01pm 22.0 23.5 20.6 92 0.9 E 13 17 7 9 1010.2 1010.1 22.2
27/09:00pm 22.1 23.7 20.7 92 0.9 E 13 17 7 9 1010.2 1010.1 21.2
27/08:45pm 22.9 24.3 21.0 89 1.2 SSE 15 33 8 18 1010.1 1010.0 9.8
27/08:30pm 23.9 26.5 21.2 85 1.8 ESE 9 11 5 6 1009.6 1009.5 8.4
27/08:00pm 23.6 27.5 21.1 86 1.6 SSE 2 6 1 3 1009.3 1009.1 8.4
27/07:30pm 24.1 27.0 20.6 81 2.3 S 6 7 3 4 1008.9 1008.7 8.4
27/07:00pm 24.8 27.5 20.3 76 2.9 SSE 6 7 3 4 1008.6 1008.4 8.4
27/06:30pm 25.3 27.4 20.1 73 3.4 ESE 9 13 5 7 1008.1 1007.9 8.4
27/06:00pm 25.3 27.9 21.2 78 2.7 SE 9 15 5 8 1008.0 1007.8 8.4
27/05:30pm 24.7 27.9 21.6 83 2.1 SSE 7 13 4 7 1007.8 1007.6 8.4
27/05:00pm 23.6 26.7 21.5 88 1.4 SE 7 11 4 6 1007.4 1007.2 8.4
27/04:30pm 22.7 25.7 21.2 91 1.0 S 7 11 4 6 1007.2 1007.0 8.4
27/04:00pm 22.8 25.4 20.5 87 1.5 NNE 7 11 4 6 1007.5 1007.3 8.4
27/03:55pm 22.6 24.9 19.9 85 1.7 ENE 7 11 4 6 1007.5 1007.3 8.4
27/03:30pm 21.2 19.4 18.8 86 1.5 SE 26 37 14 20 1007.7 1007.5 4.4
27/03:26pm 22.0 19.8 17.8 77 2.6 SE 26 41 14 22 1007.5 1007.3 0.6
27/03:19pm 25.4 23.8 19.3 69 3.9 SE 26 41 14 22 1007.2 1007.0 0.0
27/03:00pm 30.5 32.8 19.8 52 7.0 NE 7 13 4 7 1006.7 1006.5 0.0
27/02:30pm 29.5 31.2 18.6 52 7.0 NNW 7 13 4 7 1007.1 1006.9 0.0
27/02:00pm 29.4 30.7 19.4 55 6.5 NNW 11 15 6 8 1007.4 1007.2 0.0
27/01:30pm 28.7 29.6 19.3 56 6.1 N 13 20 7 11 1007.7 1007.5 0.0
27/01:00pm 28.5 29.3 19.1 56 6.1 N 13 20 7 11 1008.1 1007.9 0.0
27/12:30pm 27.9 29.1 19.1 58 5.7 NNW 11 20 6 11 1008.7 1008.5 0.0
27/12:00pm 27.7 28.9 20.0 63 5.0 NNE 13 19 7 10 1009.1 1008.9 0.0
27/11:30am 27.2 28.2 20.3 66 4.5 NNE 15 22 8 12 1009.3 1009.1 0.0
27/11:00am 26.9 28.1 19.8 65 4.6 N 13 17 7 9 1009.5 1009.4 0.0
27/10:30am 26.3 28.3 19.9 68 4.2 N 9 17 5 9 1009.5 1009.4 0.0
27/10:00am 24.6 27.3 19.4 73 3.3 NNE 4 11 2 6 1009.6 1009.5 0.0
27/09:30am 24.7 27.7 20.0 75 3.0 SSE 4 7 2 4 1009.3 1009.1 0.0
27/09:00am 23.7 26.0 19.8 79 2.5 SSE 7 11 4 6 1009.0 1008.8 2.0
27/08:30am 22.0 24.8 20.5 91 1.0 S 6 9 3 5 1008.8 1008.6 2.0
27/08:00am 21.0 23.6 20.5 97 0.3 S 7 9 4 5 1008.5 1008.3 2.0
27/07:30am 20.6 23.4 20.4 99 0.1 SSW 6 9 3 5 1008.4 1008.2 2.0
27/07:00am 20.4 22.5 20.2 99 0.1 S 9 11 5 6 1007.8 1007.6 2.0
27/06:30am 20.5 24.2 20.0 97 0.3 CALM 0 6 0 3 1007.6 1007.4 2.0
27/06:00am 20.7 22.9 20.4 98 0.2 ESE 9 13 5 7 1007.2 1007.0 2.0
27/05:30am 20.7 22.8 20.2 97 0.3 ENE 9 11 5 6 1007.3 1007.1 2.0
27/05:00am 20.8 24.7 20.3 97 0.3 CALM 0 0 0 0 1007.9 1007.7 2.0
27/04:39am 20.9 24.9 20.6 98 0.2 CALM 0 4 0 2 1008.0 1007.8 2.0
27/04:30am 20.9 24.5 20.6 98 0.2 SW 2 6 1 3 1008.0 1007.8 2.0
27/04:17am 20.8 24.4 20.5 98 0.2 SW 2 7 1 4 1007.9 1007.7 2.0
27/04:00am 20.8 24.0 20.5 98 0.2 NW 4 9 2 5 1007.7 1007.5 2.0
27/03:30am 20.9 24.8 20.4 97 0.3 CALM 0 6 0 3 1007.6 1007.4 2.0
27/03:00am 21.1 23.4 20.6 97 0.3 ENE 9 11 5 6 1007.6 1007.4 2.0
27/02:30am 21.4 25.1 20.7 96 0.5 E 2 7 1 4 1008.4 1008.2 1.6
27/02:00am 21.3 24.9 20.5 95 0.5 WSW 2 6 1 3 1009.0 1008.8 1.4
27/01:30am 21.4 23.8 20.9 97 0.3 SSW 9 15 5 8 1009.6 1009.5 1.4
27/01:00am 21.3 23.4 21.0 98 0.2 S 11 13 6 7 1009.2 1009.0 1.4
27/12:30am 21.3 24.3 20.8 97 0.3 SSW 6 7 3 4 1009.3 1009.1 1.4
27/12:00am 21.5 25.6 20.7 95 0.5 CALM 0 0 0 0 1009.1 1008.9 1.4
 
Date/Time
EDT
Temp
°C
App
Temp
°C
Dew
Point
Rel
Hum
%
Delta-T
°C
Wind Press
QNH
hPa
Press
MSL
hPa
Rain
since 9 am
mm
Dir
 
Spd
km/h
Gust
km/h
Spd
kts
Gust
kts
26/11:30pm 21.8 25.4 21.3 97 0.3 SW 4 9 2 5 1009.8 1009.7 1.4
26/11:00pm 21.6 24.6 20.9 96 0.5 SW 6 7 3 4 1009.6 1009.5 1.4
26/10:30pm 21.6 25.5 20.4 93 0.8 CALM 0 0 0 0 1009.4 1009.2 1.4
26/10:00pm 21.9 24.9 20.9 94 0.7 SW 6 7 3 4 1009.7 1009.6 1.4
26/09:30pm 22.0 25.0 21.3 96 0.5 SSW 7 9 4 5 1009.6 1009.5 1.4
26/09:00pm 21.8 25.8 20.6 93 0.8 CALM 0 0 0 0 1009.1 1008.9 1.4
26/08:30pm 22.1 25.0 21.1 94 0.7 S 7 9 4 5 1008.9 1008.7 1.4
26/08:00pm 22.3 26.5 20.9 92 0.9 CALM 0 0 0 0 1008.5 1008.3 1.4
26/07:30pm 22.5 26.5 20.6 89 1.2 CALM 0 7 0 4 1008.3 1008.1 1.4

Other Formats:

Comma delimited format used in spreadsheet applications
http://www.bom.gov.au/fwo/IDN60801/IDN60801.95570.axf

JavaScript Object Notation format (JSON) in row-major order
http://www.bom.gov.au/fwo/IDN60801/IDN60801.95570.json